Time;durP1;ratioP1;P1;durP2;ratioP2;P2;SDS_P1;SDS_P2;PMS_P1;PMS_P2;Temp;Humidity;BMP_temperature;BMP_pressure;BME280_temperature;BME280_humidity;BME280_pressure;Samples;Min_cycle;Max_cycle;Signal;HPM_P1;HPM_P2
2024/02/11 00:00:18;;;;;;;0.40;0.40;;;;;;;;;;5085942;28;20481;-61
2024/02/11 00:02:45;;;;;;;0.40;0.30;;;;;;;;;;5093652;28;20440;-64
2024/02/11 00:05:11;;;;;;;0.40;0.40;;;;;;;;;;5092379;28;20740;-65
2024/02/11 00:07:39;;;;;;;0.30;0.30;;;;;;;;;;5087653;28;20491;-64
2024/02/11 00:10:08;;;;;;;0.40;0.40;;;;;;;;;;5093396;28;20445;-61
2024/02/11 00:12:35;;;;;;;0.40;0.33;;;;;;;;;;5091293;28;20455;-63
2024/02/11 00:15:03;;;;;;;0.40;0.40;;;;;;;;;;5089732;28;20484;-66
2024/02/11 00:17:30;;;;;;;0.40;0.30;;;;;;;;;;5093311;28;20440;-63
2024/02/11 00:19:59;;;;;;;1.47;1.37;;;;;;;;;;5101498;28;20459;-62
2024/02/11 00:22:25;;;;;;;0.40;0.40;;;;;;;;;;5096074;28;20525;-61
2024/02/11 00:24:54;;;;;;;0.30;0.30;;;;;;;;;;5085705;28;20482;-62
2024/02/11 00:27:20;;;;;;;3.90;3.70;;;;;;;;;;5090486;28;20474;-62
2024/02/11 00:29:47;;;;;;;0.40;0.30;;;;;;;;;;5093314;28;20454;-63
2024/02/11 00:32:13;;;;;;;0.40;0.30;;;;;;;;;;5104361;28;20876;-64
2024/02/11 00:34:41;;;;;;;0.40;0.40;;;;;;;;;;5086428;28;20480;-64
2024/02/11 00:37:10;;;;;;;0.40;0.40;;;;;;;;;;5099174;28;20544;-63
2024/02/11 00:39:37;;;;;;;0.40;0.40;;;;;;;;;;5085722;28;20472;-65
2024/02/11 00:42:04;;;;;;;0.50;0.50;;;;;;;;;;5095994;28;20518;-64
2024/02/11 00:44:31;;;;;;;0.97;0.97;;;;;;;;;;5095071;28;20480;-63
2024/02/11 00:46:58;;;;;;;0.33;0.33;;;;;;;;;;5091417;28;20446;-65
2024/02/11 00:49:25;;;;;;;0.50;0.50;;;;;;;;;;5099928;28;20964;-64
2024/02/11 00:51:54;;;;;;;0.40;0.40;;;;;;;;;;5083793;28;20664;-65
2024/02/11 00:54:20;;;;;;;0.40;0.40;;;;;;;;;;5098225;28;20493;-64
2024/02/11 00:56:47;;;;;;;1.00;0.97;;;;;;;;;;5095847;28;20452;-64
2024/02/11 00:59:15;;;;;;;0.63;0.63;;;;;;;;;;5096034;28;20454;-63
2024/02/11 01:01:42;;;;;;;0.40;0.40;;;;;;;;;;5103779;28;20447;-61
2024/02/11 01:04:09;;;;;;;0.40;0.40;;;;;;;;;;5090086;28;20952;-65
2024/02/11 01:06:37;;;;;;;0.47;0.47;;;;;;;;;;5097181;28;20960;-64
2024/02/11 01:09:06;;;;;;;0.43;0.43;;;;;;;;;;5102467;28;20449;-64
2024/02/11 01:11:34;;;;;;;0.40;0.40;;;;;;;;;;5092491;28;20482;-64
2024/02/11 01:14:00;;;;;;;0.40;0.40;;;;;;;;;;5101704;28;20462;-64
2024/02/11 01:16:27;;;;;;;0.40;0.40;;;;;;;;;;5091536;28;20493;-61
2024/02/11 01:18:54;;;;;;;1.90;1.67;;;;;;;;;;5093024;28;20548;-63
2024/02/11 01:21:23;;;;;;;0.30;0.30;;;;;;;;;;5102197;28;20455;-65
2024/02/11 01:23:49;;;;;;;0.40;0.40;;;;;;;;;;5088839;28;20456;-65
2024/02/11 01:26:17;;;;;;;0.40;0.40;;;;;;;;;;5097740;28;20902;-63
2024/02/11 01:28:44;;;;;;;0.33;0.33;;;;;;;;;;5096696;28;20757;-65
2024/02/11 01:31:11;;;;;;;0.40;0.37;;;;;;;;;;5094387;28;20455;-64
2024/02/11 01:33:38;;;;;;;0.87;0.87;;;;;;;;;;5090940;28;20511;-63
2024/02/11 01:36:04;;;;;;;0.30;0.30;;;;;;;;;;5106907;28;20489;-65
2024/02/11 01:38:31;;;;;;;0.40;0.30;;;;;;;;;;5106772;28;20491;-63
2024/02/11 01:40:58;;;;;;;0.30;0.30;;;;;;;;;;5100952;28;20518;-63
2024/02/11 01:43:26;;;;;;;0.30;0.20;;;;;;;;;;5099045;28;20474;-61
2024/02/11 01:45:53;;;;;;;0.30;0.30;;;;;;;;;;5094326;28;20456;-64
2024/02/11 01:48:20;;;;;;;0.30;0.30;;;;;;;;;;5106458;28;20501;-65
2024/02/11 01:50:47;;;;;;;0.30;0.30;;;;;;;;;;5101967;28;20477;-64
2024/02/11 01:53:14;;;;;;;0.70;0.70;;;;;;;;;;5102682;28;20548;-63
2024/02/11 01:55:41;;;;;;;0.30;0.30;;;;;;;;;;5098350;28;20517;-63
2024/02/11 01:58:08;;;;;;;0.70;0.70;;;;;;;;;;5094342;28;20545;-63
2024/02/11 02:00:37;;;;;;;0.30;0.20;;;;;;;;;;5096704;28;21269;-63
2024/02/11 02:03:05;;;;;;;0.40;0.30;;;;;;;;;;5101087;28;21072;-64
2024/02/11 02:05:31;;;;;;;1.33;1.23;;;;;;;;;;5088096;28;20499;-62
2024/02/11 02:07:59;;;;;;;0.40;0.40;;;;;;;;;;5102118;28;20486;-64
2024/02/11 02:10:25;;;;;;;0.40;0.30;;;;;;;;;;5097018;28;20456;-62
2024/02/11 02:12:52;;;;;;;0.30;0.30;;;;;;;;;;5097152;28;20454;-63
2024/02/11 02:15:18;;;;;;;10.43;6.20;;;;;;;;;;5098550;28;21063;-63
2024/02/11 02:17:46;;;;;;;0.30;0.30;;;;;;;;;;5100486;28;20505;-63
2024/02/11 02:20:14;;;;;;;0.30;0.30;;;;;;;;;;5098118;28;20455;-64
2024/02/11 02:22:42;;;;;;;0.30;0.30;;;;;;;;;;5095855;28;20463;-64
2024/02/11 02:25:09;;;;;;;0.30;0.20;;;;;;;;;;5097061;28;20541;-61
2024/02/11 02:27:37;;;;;;;0.93;0.93;;;;;;;;;;5093792;28;20451;-63
2024/02/11 02:30:03;;;;;;;1.70;1.60;;;;;;;;;;5098793;28;20535;-62
2024/02/11 02:32:30;;;;;;;0.40;0.30;;;;;;;;;;5097679;28;20549;-66
2024/02/11 02:34:57;;;;;;;0.33;0.30;;;;;;;;;;5083828;28;20530;-63
2024/02/11 02:37:23;;;;;;;0.30;0.30;;;;;;;;;;5083502;28;20475;-66
2024/02/11 02:39:51;;;;;;;0.40;0.30;;;;;;;;;;5094909;28;20494;-65
2024/02/11 02:42:19;;;;;;;0.30;0.30;;;;;;;;;;5087359;28;20456;-64
2024/02/11 02:44:46;;;;;;;0.30;0.30;;;;;;;;;;5100823;28;20454;-63
2024/02/11 02:47:12;;;;;;;0.30;0.30;;;;;;;;;;5103051;28;20680;-65
2024/02/11 02:49:39;;;;;;;0.87;0.87;;;;;;;;;;5094199;28;20487;-60
2024/02/11 02:52:07;;;;;;;0.30;0.30;;;;;;;;;;5092303;28;20510;-64
2024/02/11 02:54:33;;;;;;;0.40;0.30;;;;;;;;;;5096489;28;20451;-64
2024/02/11 02:57:01;;;;;;;0.30;0.30;;;;;;;;;;5090794;28;20816;-65
2024/02/11 02:59:28;;;;;;;0.30;0.30;;;;;;;;;;5103655;28;20470;-63
2024/02/11 03:01:56;;;;;;;3.67;3.50;;;;;;;;;;5090593;28;20443;-64
2024/02/11 03:04:22;;;;;;;0.30;0.20;;;;;;;;;;5100948;28;20511;-64
2024/02/11 03:06:49;;;;;;;0.30;0.30;;;;;;;;;;5093724;28;20865;-63
2024/02/11 03:09:15;;;;;;;0.40;0.40;;;;;;;;;;5101549;28;20482;-64
2024/02/11 03:11:42;;;;;;;0.30;0.30;;;;;;;;;;5098036;28;20527;-63
2024/02/11 03:14:10;;;;;;;1.10;1.07;;;;;;;;;;5098900;28;20451;-64
2024/02/11 03:16:36;;;;;;;0.87;0.87;;;;;;;;;;5096528;28;20471;-65
2024/02/11 03:19:05;;;;;;;0.30;0.30;;;;;;;;;;5088484;28;20826;-62
2024/02/11 03:21:33;;;;;;;0.40;0.30;;;;;;;;;;5093438;28;20545;-62
2024/02/11 03:24:00;;;;;;;1.03;1.03;;;;;;;;;;5099503;28;20951;-61
2024/02/11 03:26:26;;;;;;;0.30;0.30;;;;;;;;;;5095824;28;20502;-64
2024/02/11 03:28:53;;;;;;;1.47;1.47;;;;;;;;;;5102542;28;20530;-62
2024/02/11 03:31:20;;;;;;;1.70;1.50;;;;;;;;;;5098332;28;20587;-64
2024/02/11 03:33:47;;;;;;;0.50;0.50;;;;;;;;;;5089075;28;20479;-65
2024/02/11 03:36:17;;;;;;;0.40;0.30;;;;;;;;;;5092641;28;20516;-65
2024/02/11 03:38:43;;;;;;;0.30;0.30;;;;;;;;;;5098662;28;20492;-63
2024/02/11 03:41:12;;;;;;;0.40;0.33;;;;;;;;;;5100089;28;20479;-64
2024/02/11 03:43:38;;;;;;;0.40;0.40;;;;;;;;;;5095718;28;20523;-64
2024/02/11 03:46:06;;;;;;;0.30;0.30;;;;;;;;;;5101869;28;20504;-65
2024/02/11 03:48:34;;;;;;;0.40;0.40;;;;;;;;;;5096470;28;20498;-63
2024/02/11 03:51:00;;;;;;;0.30;0.20;;;;;;;;;;5096215;28;20487;-64
2024/02/11 03:53:27;;;;;;;0.30;0.30;;;;;;;;;;5098812;28;20486;-64
2024/02/11 03:55:54;;;;;;;2.30;2.20;;;;;;;;;;5103231;28;20486;-62
2024/02/11 03:58:21;;;;;;;0.93;0.93;;;;;;;;;;5088909;28;20475;-62
2024/02/11 04:00:48;;;;;;;0.30;0.30;;;;;;;;;;5098574;28;20899;-64
2024/02/11 04:03:16;;;;;;;0.30;0.30;;;;;;;;;;5088927;28;20454;-63
2024/02/11 04:05:44;;;;;;;1.17;1.10;;;;;;;;;;5082567;28;20447;-62
2024/02/11 04:08:11;;;;;;;0.30;0.30;;;;;;;;;;5093066;28;21003;-62
2024/02/11 04:10:39;;;;;;;0.30;0.30;;;;;;;;;;5097835;28;20450;-65
2024/02/11 04:13:06;;;;;;;0.30;0.20;;;;;;;;;;5094316;28;20483;-66
2024/02/11 04:15:35;;;;;;;0.40;0.40;;;;;;;;;;5094023;28;20500;-63
2024/02/11 04:18:07;;;;;;;0.30;0.20;;;;;;;;;;5093780;28;20476;-63
2024/02/11 04:20:34;;;;;;;0.30;0.30;;;;;;;;;;5086939;28;20459;-65
2024/02/11 04:23:03;;;;;;;0.30;0.30;;;;;;;;;;5091486;28;20481;-64
2024/02/11 04:25:32;;;;;;;0.40;0.40;;;;;;;;;;5089025;28;20469;-63
2024/02/11 04:27:59;;;;;;;0.40;0.30;;;;;;;;;;5091143;28;20455;-63
2024/02/11 04:30:27;;;;;;;0.40;0.40;;;;;;;;;;5095111;28;20784;-62
2024/02/11 04:32:54;;;;;;;1.17;1.17;;;;;;;;;;5102487;28;20505;-61
2024/02/11 04:35:24;;;;;;;1.80;1.70;;;;;;;;;;5089432;28;20491;-65
2024/02/11 04:37:53;;;;;;;0.30;0.30;;;;;;;;;;5102699;28;20509;-65
2024/02/11 04:40:21;;;;;;;0.50;0.50;;;;;;;;;;5094380;28;20482;-65
2024/02/11 04:42:54;;;;;;;0.40;0.33;;;;;;;;;;5099078;28;20480;-66
2024/02/11 04:45:20;;;;;;;1.17;1.17;;;;;;;;;;5102801;28;20446;-64
2024/02/11 04:47:48;;;;;;;1.47;1.40;;;;;;;;;;5098151;28;20502;-67
2024/02/11 04:50:16;;;;;;;0.30;0.30;;;;;;;;;;5099011;28;20844;-64
2024/02/11 04:52:47;;;;;;;0.30;0.30;;;;;;;;;;5091145;28;20454;-64
2024/02/11 04:55:14;;;;;;;0.40;0.40;;;;;;;;;;5098334;28;20786;-62
2024/02/11 04:57:42;;;;;;;0.30;0.30;;;;;;;;;;5096454;28;21237;-63
2024/02/11 05:00:23;;;;;;;9.30;8.80;;;;;;;;;;5099400;28;20481;-64
2024/02/11 05:02:50;;;;;;;0.30;0.30;;;;;;;;;;5100169;28;20459;-65
2024/02/11 05:05:18;;;;;;;0.30;0.30;;;;;;;;;;5096416;28;20914;-65
2024/02/11 05:07:45;;;;;;;0.30;0.30;;;;;;;;;;5102190;28;20976;-64
2024/02/11 05:10:12;;;;;;;0.30;0.30;;;;;;;;;;5102313;28;20449;-63
2024/02/11 05:12:39;;;;;;;0.30;0.30;;;;;;;;;;5101167;28;20459;-64
2024/02/11 05:15:08;;;;;;;0.30;0.30;;;;;;;;;;5092545;28;20487;-64
2024/02/11 05:17:38;;;;;;;0.40;0.40;;;;;;;;;;5102640;28;21046;-65
2024/02/11 05:20:06;;;;;;;0.40;0.30;;;;;;;;;;5087250;28;20463;-62
2024/02/11 05:22:33;;;;;;;0.50;0.50;;;;;;;;;;5100401;28;20811;-63
2024/02/11 05:25:00;;;;;;;0.30;0.30;;;;;;;;;;5094678;28;20463;-67
2024/02/11 05:27:26;;;;;;;0.40;0.40;;;;;;;;;;5096022;28;20443;-65
2024/02/11 05:29:54;;;;;;;0.97;0.97;;;;;;;;;;5102826;28;21212;-65
2024/02/11 05:32:21;;;;;;;0.30;0.30;;;;;;;;;;5097086;28;20564;-65
2024/02/11 05:34:48;;;;;;;0.40;0.40;;;;;;;;;;5097815;28;20495;-64
2024/02/11 05:37:16;;;;;;;0.40;0.30;;;;;;;;;;5098775;28;20530;-65
2024/02/11 05:39:43;;;;;;;0.30;0.30;;;;;;;;;;5093628;28;20484;-65
2024/02/11 05:42:11;;;;;;;0.40;0.40;;;;;;;;;;5100467;28;20467;-68
2024/02/11 05:44:38;;;;;;;0.33;0.30;;;;;;;;;;5100797;28;20488;-64
2024/02/11 05:47:05;;;;;;;1.27;1.27;;;;;;;;;;5099991;28;20457;-64
2024/02/11 05:49:33;;;;;;;0.40;0.30;;;;;;;;;;5085939;28;20470;-65
2024/02/11 05:51:59;;;;;;;0.37;0.37;;;;;;;;;;5086724;28;20559;-64
2024/02/11 05:54:28;;;;;;;0.50;0.50;;;;;;;;;;5092236;28;20508;-64
2024/02/11 05:56:54;;;;;;;0.40;0.40;;;;;;;;;;5089726;28;20603;-63
2024/02/11 05:59:22;;;;;;;0.87;0.87;;;;;;;;;;5090174;28;20474;-64
2024/02/11 06:01:49;;;;;;;0.40;0.40;;;;;;;;;;5103082;28;20554;-62
2024/02/11 06:04:16;;;;;;;0.40;0.40;;;;;;;;;;5100138;28;20516;-66
2024/02/11 06:06:44;;;;;;;0.50;0.50;;;;;;;;;;5093608;28;21061;-64
2024/02/11 06:09:13;;;;;;;3.60;3.40;;;;;;;;;;5100736;28;20473;-64
2024/02/11 06:11:40;;;;;;;0.30;0.30;;;;;;;;;;5099280;28;20461;-65
2024/02/11 06:14:06;;;;;;;14.90;14.20;;;;;;;;;;5097759;28;20447;-62
2024/02/11 06:16:33;;;;;;;0.43;0.43;;;;;;;;;;5099729;28;20563;-63
2024/02/11 06:18:59;;;;;;;0.30;0.30;;;;;;;;;;5097167;28;20431;-64
2024/02/11 06:21:26;;;;;;;0.40;0.30;;;;;;;;;;5096564;28;20953;-63
2024/02/11 06:23:54;;;;;;;0.40;0.40;;;;;;;;;;5098181;28;20458;-65
2024/02/11 06:26:20;;;;;;;1.67;1.57;;;;;;;;;;5097700;28;20481;-65
2024/02/11 06:28:48;;;;;;;0.40;0.33;;;;;;;;;;5099202;28;20473;-65
2024/02/11 06:31:14;;;;;;;1.63;1.53;;;;;;;;;;5096271;28;20546;-64
2024/02/11 06:33:41;;;;;;;0.30;0.30;;;;;;;;;;5091376;28;20588;-64
2024/02/11 06:36:08;;;;;;;0.33;0.30;;;;;;;;;;5092005;28;20521;-64
2024/02/11 06:38:35;;;;;;;1.03;1.03;;;;;;;;;;5096023;28;20570;-64
2024/02/11 06:41:03;;;;;;;2.50;2.40;;;;;;;;;;5098175;28;20574;-65
2024/02/11 06:43:32;;;;;;;0.40;0.30;;;;;;;;;;5101789;28;20490;-64
2024/02/11 06:45:59;;;;;;;2.50;2.20;;;;;;;;;;5097804;28;20454;-64
2024/02/11 06:48:27;;;;;;;0.40;0.40;;;;;;;;;;5097333;28;20470;-65
2024/02/11 06:50:54;;;;;;;0.40;0.40;;;;;;;;;;5095831;28;20439;-62
2024/02/11 06:53:20;;;;;;;1.30;1.30;;;;;;;;;;5096529;28;20494;-63
2024/02/11 06:55:47;;;;;;;0.30;0.30;;;;;;;;;;5097724;28;20551;-61
2024/02/11 06:58:15;;;;;;;0.93;0.93;;;;;;;;;;5098405;28;20443;-64
2024/02/11 07:00:42;;;;;;;0.87;0.87;;;;;;;;;;5099062;28;20474;-62
2024/02/11 07:03:10;;;;;;;0.30;0.30;;;;;;;;;;5103246;28;20443;-67
2024/02/11 07:05:38;;;;;;;0.50;0.50;;;;;;;;;;5095569;28;20528;-64
2024/02/11 07:08:06;;;;;;;0.40;0.40;;;;;;;;;;5100436;28;20479;-65
2024/02/11 07:10:33;;;;;;;0.30;0.30;;;;;;;;;;5100836;28;20458;-64
2024/02/11 07:12:59;;;;;;;0.30;0.30;;;;;;;;;;5094581;28;20447;-62
2024/02/11 07:15:28;;;;;;;0.50;0.50;;;;;;;;;;5098577;28;20485;-64
2024/02/11 07:17:54;;;;;;;0.40;0.30;;;;;;;;;;5097384;28;20672;-64
2024/02/11 07:20:22;;;;;;;1.90;1.80;;;;;;;;;;5090474;28;20539;-64
2024/02/11 07:22:48;;;;;;;1.77;1.67;;;;;;;;;;5091903;28;20498;-63
2024/02/11 07:25:16;;;;;;;0.37;0.30;;;;;;;;;;5100637;28;20490;-63
2024/02/11 07:27:43;;;;;;;0.30;0.30;;;;;;;;;;5097668;28;20898;-62
2024/02/11 07:30:11;;;;;;;0.40;0.30;;;;;;;;;;5097076;28;20443;-65
2024/02/11 07:32:41;;;;;;;0.30;0.30;;;;;;;;;;5095921;28;20489;-64
2024/02/11 07:35:08;;;;;;;0.40;0.30;;;;;;;;;;5094197;28;20459;-64
2024/02/11 07:37:34;;;;;;;0.30;0.30;;;;;;;;;;5093210;28;20531;-63
2024/02/11 07:40:04;;;;;;;0.50;0.50;;;;;;;;;;5096398;28;20720;-65
2024/02/11 07:42:30;;;;;;;0.50;0.50;;;;;;;;;;5103856;28;20465;-64
2024/02/11 07:44:57;;;;;;;0.30;0.30;;;;;;;;;;5103269;28;20447;-65
2024/02/11 07:47:24;;;;;;;0.50;0.50;;;;;;;;;;5089890;28;20454;-64
2024/02/11 07:49:52;;;;;;;0.40;0.40;;;;;;;;;;5100738;28;20514;-64
2024/02/11 07:52:21;;;;;;;1.10;1.10;;;;;;;;;;5094325;28;20490;-67
2024/02/11 07:54:48;;;;;;;0.40;0.40;;;;;;;;;;5095479;28;20474;-66
2024/02/11 07:57:15;;;;;;;0.37;0.37;;;;;;;;;;5092268;28;20479;-66
2024/02/11 07:59:41;;;;;;;0.40;0.40;;;;;;;;;;5095715;28;20440;-66
2024/02/11 08:02:08;;;;;;;0.70;0.70;;;;;;;;;;5096119;28;21195;-67
2024/02/11 08:04:34;;;;;;;2.23;2.10;;;;;;;;;;5092766;28;20485;-65
2024/02/11 08:07:02;;;;;;;0.50;0.50;;;;;;;;;;5092420;28;20474;-65
2024/02/11 08:09:29;;;;;;;0.40;0.40;;;;;;;;;;5093553;28;20914;-65
2024/02/11 08:11:55;;;;;;;0.40;0.40;;;;;;;;;;5099252;28;20474;-66
2024/02/11 08:14:22;;;;;;;0.40;0.40;;;;;;;;;;5097666;28;20482;-65
2024/02/11 08:16:48;;;;;;;0.40;0.40;;;;;;;;;;5100697;28;20597;-64
2024/02/11 08:19:15;;;;;;;1.10;1.10;;;;;;;;;;5100269;28;20479;-66
2024/02/11 08:21:43;;;;;;;0.30;0.30;;;;;;;;;;5097678;28;20527;-62
2024/02/11 08:24:11;;;;;;;0.50;0.50;;;;;;;;;;5100275;28;20455;-65
2024/02/11 08:26:38;;;;;;;7.83;7.30;;;;;;;;;;5093497;28;20446;-64
2024/02/11 08:29:04;;;;;;;0.60;0.60;;;;;;;;;;5086790;28;20507;-63
2024/02/11 08:31:31;;;;;;;0.90;0.90;;;;;;;;;;5095287;28;20455;-66
2024/02/11 08:33:57;;;;;;;0.50;0.50;;;;;;;;;;5086963;28;20483;-65
2024/02/11 08:36:24;;;;;;;1.00;1.00;;;;;;;;;;5091178;28;20942;-66
2024/02/11 08:38:51;;;;;;;1.57;1.47;;;;;;;;;;5088504;28;21230;-66
2024/02/11 08:41:19;;;;;;;1.27;1.27;;;;;;;;;;5098924;28;20454;-66
2024/02/11 08:43:46;;;;;;;0.40;0.40;;;;;;;;;;5087370;28;20455;-66
2024/02/11 08:46:13;;;;;;;0.40;0.40;;;;;;;;;;5096352;28;20438;-66
2024/02/11 08:48:39;;;;;;;0.40;0.40;;;;;;;;;;5088533;28;20455;-67
2024/02/11 08:51:05;;;;;;;0.40;0.40;;;;;;;;;;5092855;28;20490;-64
2024/02/11 08:53:32;;;;;;;0.40;0.40;;;;;;;;;;5092439;28;20443;-65
2024/02/11 08:55:59;;;;;;;0.40;0.40;;;;;;;;;;5088965;28;20509;-66
2024/02/11 08:58:29;;;;;;;0.40;0.40;;;;;;;;;;5090455;28;20527;-64
2024/02/11 09:00:56;;;;;;;0.50;0.50;;;;;;;;;;5091382;28;20451;-66
2024/02/11 09:03:22;;;;;;;0.60;0.60;;;;;;;;;;5093640;28;20443;-66
2024/02/11 09:05:48;;;;;;;0.50;0.50;;;;;;;;;;5096189;28;20685;-65
2024/02/11 09:08:16;;;;;;;1.93;1.83;;;;;;;;;;5094987;28;20475;-65
2024/02/11 09:10:43;;;;;;;0.47;0.47;;;;;;;;;;5096096;28;20451;-67
2024/02/11 09:13:10;;;;;;;0.50;0.50;;;;;;;;;;5093387;28;20478;-66
2024/02/11 09:15:38;;;;;;;2.43;2.33;;;;;;;;;;5095192;28;20451;-65
2024/02/11 09:18:05;;;;;;;0.40;0.40;;;;;;;;;;5095925;28;20493;-65
2024/02/11 09:20:32;;;;;;;1.57;1.50;;;;;;;;;;5098404;28;20562;-65
2024/02/11 09:22:59;;;;;;;4.73;4.50;;;;;;;;;;5096473;28;20459;-65
2024/02/11 09:25:25;;;;;;;0.83;0.83;;;;;;;;;;5091820;28;20459;-66
2024/02/11 09:27:51;;;;;;;0.40;0.40;;;;;;;;;;5089844;28;20463;-66
2024/02/11 09:30:18;;;;;;;0.60;0.60;;;;;;;;;;5092494;28;20478;-66
2024/02/11 09:32:48;;;;;;;0.50;0.50;;;;;;;;;;5095786;28;20546;-66
2024/02/11 09:35:17;;;;;;;0.50;0.50;;;;;;;;;;5096602;28;20556;-66
2024/02/11 09:37:44;;;;;;;0.60;0.60;;;;;;;;;;5096032;28;21128;-65
2024/02/11 09:40:11;;;;;;;0.50;0.50;;;;;;;;;;5096852;28;20486;-67
2024/02/11 09:42:38;;;;;;;4.20;3.90;;;;;;;;;;5097123;28;20451;-67
2024/02/11 09:45:05;;;;;;;1.17;1.17;;;;;;;;;;5097078;28;20454;-67
2024/02/11 09:47:33;;;;;;;0.50;0.50;;;;;;;;;;5095096;28;20486;-65
2024/02/11 09:50:03;;;;;;;0.60;0.60;;;;;;;;;;5098257;28;20482;-65
2024/02/11 09:52:31;;;;;;;5.03;3.50;;;;;;;;;;5097142;28;20446;-64
2024/02/11 09:54:57;;;;;;;0.50;0.50;;;;;;;;;;5100545;28;20535;-64
2024/02/11 09:57:24;;;;;;;0.47;0.47;;;;;;;;;;5092825;28;21093;-66
2024/02/11 09:59:51;;;;;;;0.50;0.50;;;;;;;;;;5096567;28;20454;-66
2024/02/11 10:02:18;;;;;;;0.50;0.50;;;;;;;;;;5094442;28;20500;-65
2024/02/11 10:04:46;;;;;;;0.40;0.40;;;;;;;;;;5097409;28;20520;-66
2024/02/11 10:07:20;;;;;;;0.50;0.50;;;;;;;;;;5089775;28;20471;-69
2024/02/11 10:09:47;;;;;;;0.90;0.90;;;;;;;;;;5099322;28;20470;-69
2024/02/11 10:12:14;;;;;;;0.53;0.53;;;;;;;;;;5091676;28;20467;-64
2024/02/11 10:14:51;;;;;;;1.93;1.83;;;;;;;;;;5096234;28;20456;-67
2024/02/11 10:17:17;;;;;;;2.20;2.10;;;;;;;;;;5086487;28;20934;-65
2024/02/11 10:19:44;;;;;;;0.50;0.50;;;;;;;;;;5095385;28;20956;-64
2024/02/11 10:22:11;;;;;;;0.60;0.60;;;;;;;;;;5092496;28;20462;-66
2024/02/11 10:24:39;;;;;;;0.80;0.80;;;;;;;;;;5090092;28;20474;-65
2024/02/11 10:27:06;;;;;;;0.67;0.67;;;;;;;;;;5091253;28;20464;-65
2024/02/11 10:29:32;;;;;;;0.50;0.50;;;;;;;;;;5094434;28;20459;-62
2024/02/11 10:31:59;;;;;;;0.40;0.40;;;;;;;;;;5104001;28;20694;-62
2024/02/11 10:34:26;;;;;;;0.53;0.53;;;;;;;;;;5106455;28;20463;-66
2024/02/11 10:36:53;;;;;;;1.73;1.70;;;;;;;;;;5099035;28;20459;-63
2024/02/11 10:39:19;;;;;;;0.50;0.50;;;;;;;;;;5103515;28;20488;-62
2024/02/11 10:41:47;;;;;;;0.40;0.40;;;;;;;;;;5104509;28;20466;-63
2024/02/11 10:44:14;;;;;;;0.63;0.63;;;;;;;;;;5095137;28;20456;-61
2024/02/11 10:46:40;;;;;;;0.43;0.43;;;;;;;;;;5109177;28;20501;-63
2024/02/11 10:49:07;;;;;;;0.40;0.40;;;;;;;;;;5104580;28;20466;-63
2024/02/11 10:51:38;;;;;;;0.97;0.97;;;;;;;;;;5101872;28;20466;-62
2024/02/11 10:54:04;;;;;;;0.53;0.53;;;;;;;;;;5102770;28;20467;-63
2024/02/11 10:56:34;;;;;;;0.53;0.53;;;;;;;;;;5108007;28;20519;-66
2024/02/11 10:59:10;;;;;;;0.40;0.40;;;;;;;;;;5105707;28;20475;-65
2024/02/11 11:01:37;;;;;;;0.40;0.40;;;;;;;;;;5104421;28;20457;-69
2024/02/11 11:04:05;;;;;;;0.60;0.60;;;;;;;;;;5107749;28;20447;-70
2024/02/11 11:06:33;;;;;;;0.40;0.40;;;;;;;;;;5102199;28;20481;-70
2024/02/11 11:09:00;;;;;;;0.57;0.57;;;;;;;;;;5094598;28;20454;-69
2024/02/11 11:11:27;;;;;;;0.50;0.50;;;;;;;;;;5092141;28;20490;-69
2024/02/11 11:13:56;;;;;;;0.50;0.50;;;;;;;;;;5100752;28;20470;-70
2024/02/11 11:16:27;;;;;;;0.50;0.50;;;;;;;;;;5102871;28;20486;-68
2024/02/11 11:18:54;;;;;;;0.60;0.60;;;;;;;;;;5094579;28;20484;-67
2024/02/11 11:21:22;;;;;;;0.60;0.60;;;;;;;;;;5107936;28;20443;-68
2024/02/11 11:23:49;;;;;;;0.53;0.53;;;;;;;;;;5104792;28;20462;-66
2024/02/11 11:26:19;;;;;;;0.50;0.50;;;;;;;;;;5101151;28;20473;-66
2024/02/11 11:28:45;;;;;;;0.47;0.47;;;;;;;;;;5097834;28;20477;-65
2024/02/11 11:31:13;;;;;;;0.70;0.70;;;;;;;;;;5099900;28;20468;-68
2024/02/11 11:33:41;;;;;;;0.47;0.47;;;;;;;;;;5098864;28;20458;-67
2024/02/11 11:36:08;;;;;;;0.50;0.50;;;;;;;;;;5096993;28;20500;-65
2024/02/11 11:38:34;;;;;;;0.53;0.50;;;;;;;;;;5103140;28;20875;-63
2024/02/11 11:41:02;;;;;;;0.70;0.70;;;;;;;;;;5096882;28;20482;-68
2024/02/11 11:43:32;;;;;;;0.50;0.50;;;;;;;;;;5100302;28;20493;-65
2024/02/11 11:45:59;;;;;;;0.63;0.63;;;;;;;;;;5098790;28;20891;-69
2024/02/11 11:48:26;;;;;;;0.50;0.50;;;;;;;;;;5105053;28;20474;-66
2024/02/11 11:50:57;;;;;;;0.63;0.63;;;;;;;;;;5102095;28;20650;-64
2024/02/11 11:53:23;;;;;;;1.60;1.50;;;;;;;;;;5091618;28;20458;-63
2024/02/11 11:55:50;;;;;;;0.40;0.40;;;;;;;;;;5109000;28;20674;-65
2024/02/11 11:58:21;;;;;;;0.40;0.40;;;;;;;;;;5103209;28;20470;-65
2024/02/11 12:00:57;;;;;;;0.60;0.60;;;;;;;;;;5098786;28;20641;-63
2024/02/11 12:03:24;;;;;;;2.93;2.83;;;;;;;;;;5101262;28;20450;-63
2024/02/11 12:05:50;;;;;;;0.60;0.60;;;;;;;;;;5097913;28;20477;-65
2024/02/11 12:08:18;;;;;;;0.50;0.50;;;;;;;;;;5093309;28;20479;-63
2024/02/11 12:10:54;;;;;;;0.60;0.60;;;;;;;;;;5097931;28;20463;-68
2024/02/11 12:13:21;;;;;;;0.50;0.50;;;;;;;;;;5099304;28;20817;-64
2024/02/11 12:15:47;;;;;;;0.60;0.60;;;;;;;;;;5092269;28;20515;-67
2024/02/11 12:18:17;;;;;;;0.63;0.63;;;;;;;;;;5095810;28;20884;-66
2024/02/11 12:20:43;;;;;;;1.57;1.47;;;;;;;;;;5106110;28;20514;-66
2024/02/11 12:23:10;;;;;;;0.80;0.80;;;;;;;;;;5097514;28;20466;-68
2024/02/11 12:25:39;;;;;;;0.53;0.53;;;;;;;;;;5100570;28;20458;-67
2024/02/11 12:28:09;;;;;;;0.73;0.73;;;;;;;;;;5102041;28;20897;-63
2024/02/11 12:30:38;;;;;;;0.60;0.60;;;;;;;;;;5093098;28;20581;-73
2024/02/11 12:33:06;;;;;;;1.80;1.70;;;;;;;;;;5110449;28;20517;-70
2024/02/11 12:35:34;;;;;;;0.60;0.60;;;;;;;;;;5099763;28;20481;-72
2024/02/11 12:38:02;;;;;;;0.80;0.80;;;;;;;;;;5106232;28;20489;-71
2024/02/11 12:40:29;;;;;;;0.60;0.60;;;;;;;;;;5105344;28;20515;-73
2024/02/11 12:43:00;;;;;;;0.60;0.60;;;;;;;;;;5107862;28;20462;-72
2024/02/11 12:45:27;;;;;;;0.57;0.57;;;;;;;;;;5093764;28;20442;-72
2024/02/11 12:47:54;;;;;;;0.70;0.70;;;;;;;;;;5103589;28;20448;-72
2024/02/11 12:50:22;;;;;;;0.50;0.50;;;;;;;;;;5101133;28;21030;-71
2024/02/11 12:52:48;;;;;;;0.60;0.60;;;;;;;;;;5107197;28;20537;-75
2024/02/11 12:55:15;;;;;;;0.70;0.70;;;;;;;;;;5102819;28;20511;-72
2024/02/11 12:57:42;;;;;;;0.60;0.60;;;;;;;;;;5110300;28;20495;-74
2024/02/11 13:00:13;;;;;;;0.80;0.80;;;;;;;;;;5102178;28;20894;-82
2024/02/11 13:02:42;;;;;;;0.70;0.70;;;;;;;;;;5100243;28;20499;-68
2024/02/11 13:05:10;;;;;;;0.60;0.60;;;;;;;;;;5106387;28;20526;-70
2024/02/11 13:07:37;;;;;;;1.53;1.53;;;;;;;;;;5104930;28;20463;-68
2024/02/11 13:10:03;;;;;;;0.53;0.53;;;;;;;;;;5101621;28;20447;-66
2024/02/11 13:12:36;;;;;;;0.67;0.67;;;;;;;;;;5104258;28;20454;-68
2024/02/11 13:15:02;;;;;;;0.70;0.70;;;;;;;;;;5107203;28;20489;-66
2024/02/11 13:17:30;;;;;;;0.53;0.53;;;;;;;;;;5105178;28;20459;-65
2024/02/11 13:19:57;;;;;;;0.50;0.50;;;;;;;;;;5107784;28;20485;-64
2024/02/11 13:22:24;;;;;;;0.50;0.50;;;;;;;;;;5101406;28;20459;-67
2024/02/11 13:24:53;;;;;;;0.60;0.60;;;;;;;;;;5102981;28;20458;-67
2024/02/11 13:27:20;;;;;;;1.97;1.80;;;;;;;;;;5099600;28;20508;-67
2024/02/11 13:29:46;;;;;;;9.90;9.10;;;;;;;;;;5104228;28;20474;-65
2024/02/11 13:32:13;;;;;;;0.40;0.40;;;;;;;;;;5104125;28;20485;-70
2024/02/11 13:34:41;;;;;;;2.13;2.03;;;;;;;;;;5108899;28;20451;-71
2024/02/11 13:37:07;;;;;;;0.50;0.50;;;;;;;;;;5107916;28;20450;-71
2024/02/11 13:39:34;;;;;;;0.50;0.50;;;;;;;;;;5095663;28;20526;-72
2024/02/11 13:42:00;;;;;;;0.50;0.50;;;;;;;;;;5097939;28;20451;-69
2024/02/11 13:44:27;;;;;;;0.70;0.70;;;;;;;;;;5093465;28;20455;-68
2024/02/11 13:46:53;;;;;;;0.60;0.60;;;;;;;;;;5096750;28;20468;-71
2024/02/11 13:49:20;;;;;;;0.53;0.53;;;;;;;;;;5100527;28;20431;-72
2024/02/11 13:51:48;;;;;;;0.50;0.50;;;;;;;;;;5087854;28;20518;-69
2024/02/11 13:54:14;;;;;;;0.50;0.50;;;;;;;;;;5095078;28;20451;-72
2024/02/11 13:56:41;;;;;;;0.50;0.50;;;;;;;;;;5095095;28;20606;-71
2024/02/11 13:59:08;;;;;;;0.50;0.50;;;;;;;;;;5090578;28;20483;-72
2024/02/11 14:01:34;;;;;;;0.70;0.70;;;;;;;;;;5091504;28;20463;-71
2024/02/11 14:04:02;;;;;;;0.50;0.50;;;;;;;;;;5092256;28;20493;-70
2024/02/11 14:06:30;;;;;;;1.53;1.33;;;;;;;;;;5093547;28;20460;-70
2024/02/11 14:08:58;;;;;;;0.60;0.60;;;;;;;;;;5097404;28;20482;-70
2024/02/11 14:11:25;;;;;;;0.70;0.70;;;;;;;;;;5090813;28;20454;-71
2024/02/11 14:13:52;;;;;;;0.80;0.80;;;;;;;;;;5099958;28;20451;-69
2024/02/11 14:16:19;;;;;;;0.80;0.80;;;;;;;;;;5091902;28;20534;-71
2024/02/11 14:18:47;;;;;;;0.70;0.70;;;;;;;;;;5090005;28;20483;-70
2024/02/11 14:21:14;;;;;;;0.80;0.80;;;;;;;;;;5080089;28;20478;-71
2024/02/11 14:23:40;;;;;;;0.70;0.70;;;;;;;;;;5099921;28;20464;-66
2024/02/11 14:26:10;;;;;;;0.80;0.80;;;;;;;;;;5101124;28;20503;-70
2024/02/11 14:28:36;;;;;;;0.70;0.70;;;;;;;;;;5092553;28;20758;-71
2024/02/11 14:31:04;;;;;;;0.90;0.90;;;;;;;;;;5097621;28;20462;-71
2024/02/11 14:33:31;;;;;;;3.80;3.60;;;;;;;;;;5086120;28;20485;-71
2024/02/11 14:35:58;;;;;;;0.80;0.80;;;;;;;;;;5086835;28;20463;-67
2024/02/11 14:38:24;;;;;;;0.93;0.93;;;;;;;;;;5097297;28;20474;-70
2024/02/11 14:40:51;;;;;;;0.70;0.70;;;;;;;;;;5095734;28;21266;-71
2024/02/11 14:43:19;;;;;;;0.70;0.70;;;;;;;;;;5098387;28;20526;-70